Time;durP1;ratioP1;P1;durP2;ratioP2;P2;SDS_P1;SDS_P2;PMS_P1;PMS_P2;Temp;Humidity;BMP_temperature;BMP_pressure;BME280_temperature;BME280_humidity;BME280_pressure;Samples;Min_cycle;Max_cycle;Signal;HPM_P1;HPM_P2
2023/08/03 00:00:19;;;;;;;6.38;1.23;;;21.40;54.90;;;;;;4943396;28;20592;-44
2023/08/03 00:02:47;;;;;;;2.70;0.75;;;21.30;55.00;;;;;;4943523;28;20063;-55
2023/08/03 00:05:17;;;;;;;4.50;0.85;;;21.30;55.00;;;;;;4944292;28;20059;-44
2023/08/03 00:07:44;;;;;;;2.20;0.77;;;21.20;55.10;;;;;;4944463;28;20071;-45
2023/08/03 00:10:11;;;;;;;8.90;0.82;;;21.20;55.10;;;;;;4944258;28;20063;-44
2023/08/03 00:12:40;;;;;;;2.60;0.43;;;21.20;55.30;;;;;;4942281;28;20062;-50
2023/08/03 00:15:09;;;;;;;2.05;0.60;;;21.10;55.30;;;;;;4943857;28;20515;-48
2023/08/03 00:17:36;;;;;;;3.30;0.85;;;21.10;55.50;;;;;;4944034;28;20059;-47
2023/08/03 00:20:04;;;;;;;6.35;1.23;;;21.10;55.60;;;;;;4944242;28;20477;-49
2023/08/03 00:22:32;;;;;;;7.53;0.98;;;21.10;55.60;;;;;;4943337;28;20364;-44
2023/08/03 00:24:59;;;;;;;3.25;0.98;;;21.00;55.60;;;;;;4944493;28;20271;-46
2023/08/03 00:27:26;;;;;;;3.75;0.77;;;21.00;55.70;;;;;;4944378;28;20044;-45
2023/08/03 00:29:56;;;;;;;3.03;0.80;;;21.00;55.70;;;;;;4947039;28;20062;-49
2023/08/03 00:32:23;;;;;;;4.15;1.00;;;20.90;55.80;;;;;;4946595;28;20082;-44
2023/08/03 00:34:50;;;;;;;3.08;0.70;;;20.90;55.80;;;;;;4947195;28;20090;-44
2023/08/03 00:37:18;;;;;;;2.22;0.70;;;20.90;55.80;;;;;;4946083;28;20059;-48
2023/08/03 00:39:45;;;;;;;3.40;0.90;;;20.90;55.80;;;;;;4947389;28;20484;-46
2023/08/03 00:42:12;;;;;;;2.25;0.50;;;20.90;55.80;;;;;;4946699;28;20067;-43
2023/08/03 00:44:39;;;;;;;3.67;0.70;;;20.80;55.70;;;;;;4947689;28;20055;-47
2023/08/03 00:47:08;;;;;;;2.42;0.63;;;20.80;55.70;;;;;;4945847;28;20051;-46
2023/08/03 00:49:36;;;;;;;2.60;0.65;;;20.80;55.70;;;;;;4946788;28;20064;-45
2023/08/03 00:52:03;;;;;;;2.92;0.73;;;20.80;55.60;;;;;;4945941;28;20055;-46
2023/08/03 00:54:30;;;;;;;3.22;0.50;;;20.80;55.60;;;;;;4946352;28;20051;-46
2023/08/03 00:56:58;;;;;;;3.30;0.40;;;20.80;55.50;;;;;;4943816;28;20393;-44
2023/08/03 00:59:26;;;;;;;1.92;0.50;;;20.80;55.60;;;;;;4947068;28;20055;-44
2023/08/03 01:01:53;;;;;;;1.40;0.30;;;20.70;55.50;;;;;;4946564;28;20376;-48
2023/08/03 01:04:22;;;;;;;1.95;0.40;;;20.70;55.50;;;;;;4954558;23;20059;-87
2023/08/03 01:06:49;;;;;;;3.25;0.75;;;20.70;55.50;;;;;;4945431;28;20082;-87
2023/08/03 01:09:16;;;;;;;3.67;1.23;;;20.70;55.50;;;;;;4945867;28;20066;-87
2023/08/03 01:11:44;;;;;;;0.77;0.40;;;20.70;55.40;;;;;;4945097;28;20138;-86
2023/08/03 01:14:11;;;;;;;2.67;0.80;;;20.70;55.30;;;;;;4945444;28;20066;-87
2023/08/03 01:16:39;;;;;;;2.33;0.57;;;20.70;55.20;;;;;;4947045;28;20062;-87
2023/08/03 01:19:08;;;;;;;1.17;0.32;;;20.70;55.30;;;;;;4946550;28;20059;-88
2023/08/03 01:21:38;;;;;;;1.45;0.38;;;20.70;55.30;;;;;;4945901;28;20047;-86
2023/08/03 01:24:06;;;;;;;2.50;0.30;;;20.70;55.30;;;;;;4945139;28;20392;-86
2023/08/03 01:26:34;;;;;;;1.95;0.40;;;20.70;55.20;;;;;;4944686;28;20055;-87
2023/08/03 01:29:01;;;;;;;1.50;0.38;;;20.60;55.20;;;;;;4945103;28;20058;-86
2023/08/03 01:31:29;;;;;;;0.68;0.20;;;20.70;55.20;;;;;;4945780;28;20062;-89
2023/08/03 01:33:57;;;;;;;1.20;0.32;;;20.70;55.20;;;;;;4946111;28;20066;-87
2023/08/03 01:36:24;;;;;;;0.55;0.20;;;20.70;55.20;;;;;;4944984;28;20066;-88
2023/08/03 01:41:41;;;;;;;0.20;0.20;;;20.70;55.10;;;;;;4904564;29;20048;-88
2023/08/03 01:44:26;;;;;;;0.50;0.10;;;20.70;55.10;;;;;;4904893;29;20060;-87
2023/08/03 01:46:54;;;;;;;0.82;0.25;;;20.60;55.10;;;;;;4903960;29;20059;-86
2023/08/03 01:49:22;;;;;;;0.88;0.40;;;20.60;55.00;;;;;;4905174;29;20056;-86
2023/08/03 01:51:50;;;;;;;1.35;0.20;;;20.60;55.10;;;;;;4905074;29;20063;-87
2023/08/03 01:54:18;;;;;;;1.30;0.25;;;20.60;55.20;;;;;;4904162;29;20059;-87
2023/08/03 01:56:47;;;;;;;0.82;0.20;;;20.60;55.20;;;;;;4903101;29;20523;-87
2023/08/03 01:59:14;;;;;;;0.28;0.20;;;20.60;55.30;;;;;;4904153;29;20543;-88
2023/08/03 02:01:41;;;;;;;0.57;0.22;;;20.70;55.40;;;;;;4903499;29;20072;-87
2023/08/03 02:04:09;;;;;;;0.80;0.10;;;20.60;55.30;;;;;;4901528;29;20169;-86
2023/08/03 02:06:36;;;;;;;0.65;0.13;;;20.60;55.30;;;;;;4900309;29;20087;-86
2023/08/03 02:09:04;;;;;;;1.63;0.20;;;20.60;55.40;;;;;;4900707;29;20064;-87
2023/08/03 02:12:21;;;;;;;0.20;0.10;;;20.60;55.40;;;;;;4898841;29;20140;-87
2023/08/03 02:15:40;;;;;;;3.10;0.30;;;20.60;55.50;;;;;;4900331;29;20477;-87
2023/08/03 02:18:59;;;;;;;0.70;0.20;;;20.70;55.50;;;;;;4901980;28;20060;-85
2023/08/03 02:22:16;;;;;;;1.98;0.20;;;20.60;55.50;;;;;;4940353;28;20059;-85
2023/08/03 02:25:34;;;;;;;2.38;0.22;;;20.60;55.60;;;;;;4942114;28;20086;-85
2023/08/03 02:28:51;;;;;;;0.60;0.20;;;20.60;55.60;;;;;;4939565;28;20074;-85
2023/08/03 02:32:09;;;;;;;1.20;0.10;;;20.60;55.60;;;;;;4940325;28;20066;-85
2023/08/03 02:35:26;;;;;;;0.90;0.22;;;20.60;55.60;;;;;;4940437;28;20066;-85
2023/08/03 02:38:44;;;;;;;0.40;0.17;;;20.60;55.60;;;;;;4940381;28;20062;-85
2023/08/03 02:42:02;;;;;;;0.45;0.20;;;20.60;55.60;;;;;;4940249;28;20511;-85
2023/08/03 02:45:20;;;;;;;0.55;0.10;;;20.60;55.70;;;;;;4940422;28;20499;-85
2023/08/03 02:48:37;;;;;;;0.57;0.22;;;20.60;55.90;;;;;;4940677;28;20074;-85
2023/08/03 02:51:54;;;;;;;1.35;0.15;;;20.60;56.10;;;;;;4940222;28;20067;-85
2023/08/03 02:55:11;;;;;;;0.30;0.10;;;20.60;56.30;;;;;;4939994;28;20070;-85
2023/08/03 02:58:28;;;;;;;1.35;0.28;;;20.60;56.40;;;;;;4939460;28;20058;-85
2023/08/03 03:01:45;;;;;;;1.55;0.30;;;20.60;56.60;;;;;;4940730;28;20066;-85
2023/08/03 03:05:02;;;;;;;1.55;0.22;;;20.60;56.50;;;;;;4940702;28;21612;-85
2023/08/03 03:08:20;;;;;;;0.60;0.20;;;20.60;56.60;;;;;;4939640;28;20495;-85
2023/08/03 03:11:37;;;;;;;3.25;0.40;;;20.60;56.60;;;;;;4939648;28;20419;-85
2023/08/03 03:14:54;;;;;;;0.70;0.17;;;20.50;56.60;;;;;;4940086;28;20051;-85
2023/08/03 03:17:48;;;;;;;0.93;0.32;;;20.50;56.70;;;;;;4940251;28;20059;-85
2023/08/03 03:20:15;;;;;;;3.20;0.80;;;20.50;56.80;;;;;;4944073;28;20388;-85
2023/08/03 03:22:41;;;;;;;2.97;0.30;;;20.50;56.80;;;;;;4942869;28;20062;-85
2023/08/03 03:25:09;;;;;;;0.88;0.30;;;20.50;57.10;;;;;;4943999;28;20521;-85
2023/08/03 03:27:37;;;;;;;0.40;0.10;;;20.50;57.30;;;;;;4942242;28;20086;-85
2023/08/03 03:30:05;;;;;;;2.00;0.13;;;20.50;57.40;;;;;;4942845;28;20058;-86
2023/08/03 03:32:32;;;;;;;1.33;0.30;;;20.50;57.60;;;;;;4943251;28;20051;-85
2023/08/03 03:35:01;;;;;;;1.98;0.25;;;20.40;57.60;;;;;;4944009;28;20055;-85
2023/08/03 03:37:28;;;;;;;1.85;0.20;;;20.40;57.80;;;;;;4943548;28;20054;-85
2023/08/03 03:39:55;;;;;;;2.25;0.10;;;20.40;57.80;;;;;;4943075;28;20124;-85
2023/08/03 03:42:23;;;;;;;0.55;0.20;;;20.40;57.90;;;;;;4941563;28;20062;-84
2023/08/03 03:44:50;;;;;;;0.52;0.20;;;20.40;57.90;;;;;;4942571;28;20063;-85
2023/08/03 03:47:17;;;;;;;0.13;0.03;;;20.40;58.00;;;;;;4943258;28;20078;-85
2023/08/03 03:49:45;;;;;;;1.15;0.10;;;20.30;58.00;;;;;;4943473;28;20055;-85
2023/08/03 03:52:13;;;;;;;0.52;0.10;;;20.30;58.00;;;;;;4943402;28;20058;-85
2023/08/03 03:54:40;;;;;;;1.02;0.20;;;20.30;58.10;;;;;;4943414;28;20063;-85
2023/08/03 03:57:08;;;;;;;0.65;0.00;;;20.30;58.10;;;;;;4941651;28;20499;-85
2023/08/03 03:59:35;;;;;;;0.35;0.10;;;20.30;58.20;;;;;;4943808;28;20043;-85
2023/08/03 04:02:02;;;;;;;0.93;0.20;;;20.30;58.20;;;;;;4944063;28;20066;-85
2023/08/03 04:04:30;;;;;;;2.40;0.10;;;20.20;58.80;;;;;;4946144;28;20065;-85
2023/08/03 04:06:57;;;;;;;0.10;0.08;;;20.20;58.30;;;;;;4944828;28;20059;-88
2023/08/03 04:09:26;;;;;;;0.35;0.20;;;20.20;58.40;;;;;;4946158;28;20051;-85
2023/08/03 04:11:53;;;;;;;0.85;0.00;;;20.10;58.40;;;;;;4945938;28;20058;-86
2023/08/03 04:14:20;;;;;;;0.17;0.08;;;20.10;58.40;;;;;;4947570;28;20357;-86
2023/08/03 04:16:48;;;;;;;1.75;0.45;;;20.10;58.50;;;;;;4947040;28;20058;-86
2023/08/03 04:19:15;;;;;;;0.50;0.10;;;20.10;58.60;;;;;;4945861;28;20062;-87
2023/08/03 04:21:43;;;;;;;0.55;0.03;;;20.10;58.60;;;;;;4946482;28;20088;-84
2023/08/03 04:24:10;;;;;;;0.10;0.00;;;20.10;58.70;;;;;;4947456;28;20515;-84
2023/08/03 04:26:39;;;;;;;0.63;0.00;;;20.00;58.70;;;;;;4944502;28;20062;-84
2023/08/03 04:29:07;;;;;;;0.15;0.00;;;20.00;58.80;;;;;;4946058;28;20051;-84
2023/08/03 04:31:34;;;;;;;0.08;0.00;;;20.00;58.80;;;;;;4946044;28;20415;-84
2023/08/03 04:34:01;;;;;;;0.32;0.20;;;20.00;58.80;;;;;;4947261;28;20055;-84
2023/08/03 04:36:28;;;;;;;0.65;0.20;;;20.00;58.90;;;;;;4946480;28;20527;-84
2023/08/03 04:38:56;;;;;;;0.47;0.20;;;20.00;59.40;;;;;;4947471;28;20510;-84
2023/08/03 04:41:23;;;;;;;1.65;0.05;;;20.00;59.00;;;;;;4944989;28;20059;-85
2023/08/03 04:43:51;;;;;;;0.45;0.10;;;20.00;59.00;;;;;;4945810;28;20055;-84
2023/08/03 04:46:19;;;;;;;0.52;0.00;;;20.00;59.00;;;;;;4945964;28;20936;-84
2023/08/03 04:48:46;;;;;;;1.15;0.20;;;20.00;59.00;;;;;;4943852;28;20388;-84
2023/08/03 04:51:13;;;;;;;1.98;0.20;;;20.00;59.00;;;;;;4946119;28;20062;-84
2023/08/03 04:53:40;;;;;;;0.50;0.15;;;20.00;59.00;;;;;;4947630;28;20055;-85
2023/08/03 04:56:08;;;;;;;0.52;0.10;;;19.90;58.90;;;;;;4944650;28;20070;-84
2023/08/03 04:58:35;;;;;;;0.45;0.15;;;19.90;58.90;;;;;;4946867;28;20058;-84
2023/08/03 05:01:04;;;;;;;1.33;0.40;;;19.90;58.90;;;;;;4946584;28;20055;-84
2023/08/03 05:03:31;;;;;;;0.40;0.10;;;19.90;58.90;;;;;;4945637;28;20157;-84
2023/08/03 05:05:58;;;;;;;1.20;0.70;;;19.90;58.90;;;;;;4945345;28;20059;-84
2023/08/03 05:08:25;;;;;;;1.58;0.80;;;19.90;59.00;;;;;;4945550;28;20059;-85
2023/08/03 05:10:53;;;;;;;0.80;0.43;;;19.90;58.90;;;;;;4945092;28;20054;-84
2023/08/03 05:13:21;;;;;;;0.95;0.20;;;19.90;58.90;;;;;;4944950;28;20058;-84
2023/08/03 05:15:48;;;;;;;0.57;0.30;;;19.90;58.90;;;;;;4947648;28;20062;-84
2023/08/03 05:18:16;;;;;;;3.03;0.30;;;19.90;58.90;;;;;;4944916;28;20067;-85
2023/08/03 05:20:44;;;;;;;0.55;0.20;;;19.90;58.90;;;;;;4945306;28;20050;-84
2023/08/03 05:23:12;;;;;;;1.35;0.13;;;19.90;58.90;;;;;;4945566;28;20058;-84
2023/08/03 05:25:39;;;;;;;0.85;0.30;;;19.90;58.90;;;;;;4942940;28;20062;-84
2023/08/03 05:28:07;;;;;;;0.38;0.20;;;19.90;58.90;;;;;;4944538;28;20047;-84
2023/08/03 05:30:34;;;;;;;1.23;0.25;;;19.90;58.90;;;;;;4944954;28;20058;-84
2023/08/03 05:33:02;;;;;;;1.02;0.13;;;19.90;58.80;;;;;;4945974;28;20522;-85
2023/08/03 05:35:31;;;;;;;1.58;0.30;;;20.00;58.90;;;;;;4945214;28;20499;-84
2023/08/03 05:37:58;;;;;;;0.35;0.05;;;20.00;58.80;;;;;;4945265;28;20169;-84
2023/08/03 05:40:25;;;;;;;0.77;0.25;;;20.00;58.80;;;;;;4942974;28;20062;-84
2023/08/03 05:42:53;;;;;;;2.38;0.20;;;20.00;58.70;;;;;;4942972;28;20063;-85
2023/08/03 05:45:40;;;;;;;0.20;0.10;;;20.00;58.80;;;;;;4944760;28;20058;-84
2023/08/03 05:48:14;;;;;;;2.47;0.17;;;20.00;58.80;;;;;;4945428;28;20062;-87
2023/08/03 05:50:44;;;;;;;0.60;0.20;;;20.00;58.80;;;;;;4945605;28;20055;-86
2023/08/03 05:53:12;;;;;;;1.33;0.25;;;20.00;58.70;;;;;;4946097;28;20415;-86
2023/08/03 05:55:40;;;;;;;0.38;0.20;;;20.00;58.60;;;;;;4964049;28;20078;-84
2023/08/03 05:58:11;;;;;;;1.15;0.38;;;20.00;58.60;;;;;;4962746;28;20146;-87
2023/08/03 06:00:40;;;;;;;0.52;0.20;;;20.10;58.60;;;;;;4963491;28;20050;-86
2023/08/03 06:03:12;;;;;;;0.82;0.20;;;20.10;58.60;;;;;;4963029;28;20495;-85
2023/08/03 06:05:45;;;;;;;2.38;0.98;;;20.10;58.50;;;;;;4964521;28;20062;-84
2023/08/03 06:08:17;;;;;;;0.88;0.20;;;20.10;58.40;;;;;;4963621;28;20050;-85
2023/08/03 06:10:45;;;;;;;1.27;0.30;;;20.10;58.20;;;;;;4962701;28;20061;-85
2023/08/03 06:13:15;;;;;;;0.15;0.03;;;20.10;58.20;;;;;;4961986;28;20069;-85
2023/08/03 06:15:43;;;;;;;0.40;0.10;;;20.10;58.20;;;;;;4963837;28;20089;-85
2023/08/03 06:18:12;;;;;;;2.10;0.30;;;20.10;58.20;;;;;;4962597;28;20066;-84
2023/08/03 06:20:41;;;;;;;0.95;0.17;;;20.10;58.10;;;;;;4963624;28;20054;-89
2023/08/03 06:23:17;;;;;;;1.00;0.20;;;20.10;58.10;;;;;;4964679;28;20062;-88
2023/08/03 06:25:44;;;;;;;1.83;0.25;;;20.10;58.20;;;;;;4962080;28;20163;-86
2023/08/03 06:28:14;;;;;;;0.68;0.20;;;20.20;58.30;;;;;;4962505;28;20478;-87
2023/08/03 06:30:42;;;;;;;0.30;0.20;;;20.20;58.40;;;;;;4962181;28;20050;-87
2023/08/03 06:33:12;;;;;;;1.38;0.32;;;20.20;58.30;;;;;;4963743;28;20117;-86
2023/08/03 06:35:40;;;;;;;0.30;0.20;;;20.20;58.20;;;;;;4964263;28;20051;-86
2023/08/03 06:38:10;;;;;;;0.65;0.30;;;20.30;58.20;;;;;;4962050;28;20054;-85
2023/08/03 06:40:40;;;;;;;0.38;0.17;;;20.30;58.00;;;;;;4963726;28;21168;-87
2023/08/03 06:43:08;;;;;;;0.73;0.28;;;20.30;57.90;;;;;;4960578;28;20478;-86
2023/08/03 06:45:36;;;;;;;0.57;0.20;;;20.30;57.80;;;;;;4961411;28;20058;-86
2023/08/03 06:48:04;;;;;;;1.50;0.20;;;20.30;57.80;;;;;;4962739;28;20054;-86
2023/08/03 06:50:33;;;;;;;0.52;0.10;;;20.30;57.90;;;;;;4961821;28;20051;-86
2023/08/03 06:53:02;;;;;;;1.85;0.20;;;20.40;57.90;;;;;;4962450;28;20054;-88
2023/08/03 06:55:30;;;;;;;0.50;0.30;;;20.40;57.80;;;;;;4962124;28;20050;-88
2023/08/03 06:57:59;;;;;;;1.20;0.68;;;20.40;57.50;;;;;;4962131;28;20050;-84
2023/08/03 07:00:27;;;;;;;1.05;0.40;;;20.50;57.50;;;;;;4961804;28;20051;-84
2023/08/03 07:02:54;;;;;;;0.70;0.30;;;20.50;57.50;;;;;;4963104;28;20062;-84
2023/08/03 07:05:21;;;;;;;2.13;0.35;;;20.50;57.30;;;;;;4962068;28;20069;-86
2023/08/03 07:07:49;;;;;;;0.65;0.20;;;20.50;57.30;;;;;;4967301;28;20085;-83
2023/08/03 07:10:16;;;;;;;0.82;0.20;;;20.50;57.30;;;;;;4962376;28;20051;-84
2023/08/03 07:12:44;;;;;;;0.88;0.20;;;20.50;57.20;;;;;;4959409;28;20502;-84
2023/08/03 07:15:12;;;;;;;0.52;0.10;;;20.60;57.30;;;;;;4964941;28;20069;-84
2023/08/03 07:17:40;;;;;;;4.10;0.13;;;20.60;57.20;;;;;;4962696;28;20054;-84
2023/08/03 07:20:08;;;;;;;0.98;0.10;;;20.70;57.20;;;;;;4943895;28;20063;-85
2023/08/03 07:22:36;;;;;;;0.45;0.10;;;20.70;57.00;;;;;;4942451;28;20149;-84
2023/08/03 07:25:04;;;;;;;1.23;0.20;;;20.80;56.90;;;;;;4943864;28;20059;-84
2023/08/03 07:27:32;;;;;;;0.25;0.10;;;20.80;56.80;;;;;;4942263;28;20051;-84
2023/08/03 07:29:59;;;;;;;0.77;0.40;;;20.80;56.80;;;;;;4944882;28;20055;-84
2023/08/03 07:32:27;;;;;;;0.63;0.20;;;20.90;56.80;;;;;;4944742;28;20411;-84
2023/08/03 07:34:55;;;;;;;1.17;0.20;;;20.90;56.60;;;;;;4943419;28;20504;-86
2023/08/03 07:37:22;;;;;;;0.40;0.10;;;20.90;56.50;;;;;;4944640;28;20401;-83
2023/08/03 07:39:49;;;;;;;2.20;0.28;;;21.00;56.40;;;;;;4948018;28;20538;-84
2023/08/03 07:42:17;;;;;;;0.40;0.30;;;21.10;56.30;;;;;;4946154;28;20055;-84
2023/08/03 07:44:44;;;;;;;0.65;0.20;;;21.10;56.30;;;;;;4947922;28;20055;-84
2023/08/03 07:47:11;;;;;;;3.10;0.70;;;21.10;56.20;;;;;;4947786;28;20488;-86
2023/08/03 07:49:40;;;;;;;1.63;1.10;;;21.10;56.30;;;;;;4946323;28;20498;-84
2023/08/03 07:52:08;;;;;;;11.73;7.38;;;21.20;56.40;;;;;;4946341;28;20054;-85
2023/08/03 07:54:35;;;;;;;1.98;1.50;;;21.20;56.50;;;;;;4947206;28;20480;-84
2023/08/03 07:57:02;;;;;;;0.63;0.40;;;21.30;56.30;;;;;;4945127;28;20059;-85
2023/08/03 07:59:30;;;;;;;0.90;0.25;;;21.30;56.10;;;;;;4946255;28;20055;-87
2023/08/03 08:01:58;;;;;;;1.73;0.10;;;21.40;56.00;;;;;;4945865;28;20514;-84
2023/08/03 08:04:26;;;;;;;0.30;0.10;;;21.40;55.90;;;;;;4946663;28;20471;-85
2023/08/03 08:06:54;;;;;;;0.30;0.10;;;21.50;55.80;;;;;;4945331;28;20055;-87
2023/08/03 08:09:22;;;;;;;0.30;0.10;;;21.50;55.70;;;;;;4945583;28;20055;-86
2023/08/03 08:11:49;;;;;;;0.95;0.20;;;21.50;55.60;;;;;;4943579;28;20059;-88
2023/08/03 08:14:17;;;;;;;0.00;0.00;;;21.60;55.60;;;;;;4945526;28;20055;-86
2023/08/03 08:16:44;;;;;;;0.00;0.00;;;21.50;55.40;;;;;;4946683;28;20503;-86
2023/08/03 08:19:11;;;;;;;0.00;0.00;;;21.60;55.30;;;;;;4958390;28;20070;-86
2023/08/03 08:21:38;;;;;;;0.08;0.00;;;21.60;55.30;;;;;;4965940;28;20066;-86
2023/08/03 08:24:07;;;;;;;0.65;0.10;;;21.60;55.20;;;;;;4966215;28;20050;-86
2023/08/03 08:26:35;;;;;;;0.32;0.10;;;21.60;55.00;;;;;;4963581;28;20054;-86
2023/08/03 08:29:02;;;;;;;0.30;0.05;;;21.60;55.10;;;;;;4964390;28;20062;-85
2023/08/03 08:31:29;;;;;;;0.20;0.10;;;21.60;55.20;;;;;;4965516;28;20054;-86
2023/08/03 08:33:57;;;;;;;1.20;0.10;;;21.70;55.20;;;;;;4966050;28;20057;-86
2023/08/03 08:36:24;;;;;;;0.00;0.00;;;21.70;55.10;;;;;;4965293;28;20070;-85
2023/08/03 08:38:51;;;;;;;0.00;0.00;;;21.70;55.10;;;;;;4965318;28;20050;-86
2023/08/03 08:41:20;;;;;;;0.77;0.10;;;21.70;55.10;;;;;;4964466;28;20058;-84
2023/08/03 08:43:48;;;;;;;0.05;0.00;;;21.70;55.00;;;;;;4964278;28;20533;-85
2023/08/03 08:46:15;;;;;;;0.17;0.10;;;21.70;54.90;;;;;;4964861;28;20054;-85
2023/08/03 08:48:42;;;;;;;0.00;0.00;;;21.70;54.70;;;;;;4964285;28;20058;-85
2023/08/03 08:51:11;;;;;;;0.20;0.00;;;21.80;54.80;;;;;;4965334;28;20066;-85
2023/08/03 08:53:38;;;;;;;0.77;0.10;;;21.80;54.80;;;;;;4966137;28;20057;-84
2023/08/03 08:56:05;;;;;;;0.25;0.10;;;21.80;54.80;;;;;;4964880;28;20050;-85
2023/08/03 08:58:34;;;;;;;0.65;0.00;;;21.80;54.80;;;;;;4964425;28;20047;-86
2023/08/03 09:01:05;;;;;;;0.30;0.10;;;21.90;54.80;;;;;;4964142;28;20051;-85
2023/08/03 09:03:50;;;;;;;0.00;0.00;;;21.90;54.80;;;;;;4965068;28;20368;-87
2023/08/03 09:06:18;;;;;;;0.20;0.00;;;21.90;54.60;;;;;;4964730;28;20491;-84
2023/08/03 09:08:54;;;;;;;0.10;0.10;;;21.90;54.60;;;;;;4965711;28;20075;-86
2023/08/03 09:11:38;;;;;;;0.15;0.10;;;22.00;54.40;;;;;;4963860;28;20047;-85
2023/08/03 09:14:08;;;;;;;0.50;0.10;;;22.00;54.50;;;;;;4965321;28;20081;-85
2023/08/03 09:16:37;;;;;;;0.38;0.10;;;22.00;54.40;;;;;;4965314;28;20058;-84
2023/08/03 09:19:04;;;;;;;0.00;0.00;;;22.00;54.30;;;;;;4964166;28;20058;-85
2023/08/03 09:21:32;;;;;;;0.68;0.10;;;22.00;54.30;;;;;;4963579;28;20047;-86
2023/08/03 09:24:14;;;;;;;0.38;0.10;;;22.10;54.40;;;;;;4964047;28;20058;-84
2023/08/03 09:26:42;;;;;;;0.05;0.00;;;22.10;54.30;;;;;;4961975;28;20971;-84
2023/08/03 09:29:14;;;;;;;0.80;0.10;;;22.10;54.40;;;;;;4964618;28;20050;-84
2023/08/03 09:31:42;;;;;;;1.85;0.13;;;22.10;54.40;;;;;;4964079;28;20114;-84
2023/08/03 09:34:09;;;;;;;0.08;0.08;;;22.10;54.40;;;;;;4964326;28;20054;-85
2023/08/03 09:36:47;;;;;;;0.22;0.10;;;22.20;54.50;;;;;;4963222;28;20078;-86
2023/08/03 09:39:16;;;;;;;0.20;0.10;;;22.20;54.60;;;;;;4962739;28;20055;-85
2023/08/03 09:41:44;;;;;;;0.22;0.10;;;22.30;54.80;;;;;;4962255;28;20046;-85
2023/08/03 09:44:15;;;;;;;0.22;0.10;;;22.30;54.70;;;;;;4963702;28;20055;-83
2023/08/03 09:46:42;;;;;;;0.00;0.00;;;22.30;54.50;;;;;;4964613;28;20118;-85
2023/08/03 09:49:10;;;;;;;0.13;0.08;;;22.40;54.50;;;;;;4964635;28;20061;-84
2023/08/03 09:51:39;;;;;;;0.98;0.10;;;22.40;54.50;;;;;;4963196;28;20660;-83
2023/08/03 09:54:13;;;;;;;1.95;0.17;;;22.40;54.10;;;;;;4964772;28;20062;-83
2023/08/03 09:56:52;;;;;;;0.00;0.00;;;22.40;53.90;;;;;;4962197;28;20055;-84
2023/08/03 09:59:25;;;;;;;2.72;0.15;;;22.40;53.80;;;;;;4962810;28;20055;-86
2023/08/03 10:01:56;;;;;;;1.00;0.22;;;22.40;53.60;;;;;;4964654;28;20446;-86
2023/08/03 10:04:25;;;;;;;0.15;0.05;;;22.30;53.70;;;;;;4964196;28;20507;-85
2023/08/03 10:07:00;;;;;;;1.70;0.10;;;22.40;53.90;;;;;;4962850;28;20062;-85
2023/08/03 10:09:34;;;;;;;0.50;0.10;;;22.40;53.90;;;;;;4963314;28;20057;-85
2023/08/03 10:12:08;;;;;;;0.28;0.08;;;22.40;54.00;;;;;;4962579;28;20055;-85
2023/08/03 10:14:40;;;;;;;;;;;22.40;54.10;;;;;;4963435;28;20146;-84
2023/08/03 10:17:08;;;;;;;2.33;0.20;;;22.40;54.10;;;;;;4963389;28;19976;-84
2023/08/03 10:19:38;;;;;;;0.60;0.10;;;22.40;53.90;;;;;;4962287;28;20062;-86
2023/08/03 10:22:07;;;;;;;0.20;0.10;;;22.40;53.90;;;;;;4962905;28;20058;-85
2023/08/03 10:24:34;;;;;;;0.10;0.10;;;22.40;53.90;;;;;;4962905;28;20054;-86
2023/08/03 10:27:17;;;;;;;0.15;0.00;;;22.40;54.00;;;;;;4961756;28;20058;-84
2023/08/03 10:29:56;;;;;;;0.10;0.10;;;22.30;54.00;;;;;;4962846;28;20429;-84
2023/08/03 10:32:25;;;;;;;0.40;0.10;;;22.30;54.00;;;;;;4962055;28;20046;-85
2023/08/03 10:34:58;;;;;;;1.23;0.17;;;22.30;54.20;;;;;;4962232;28;20522;-85
2023/08/03 10:37:27;;;;;;;0.25;0.10;;;22.30;54.10;;;;;;4961307;28;20059;-85
2023/08/03 10:39:56;;;;;;;0.63;0.32;;;22.30;54.20;;;;;;4963675;28;20054;-85
2023/08/03 10:42:26;;;;;;;0.10;0.10;;;22.30;54.30;;;;;;4962281;28;20073;-86
2023/08/03 10:45:28;;;;;;;0.22;0.15;;;22.30;54.40;;;;;;4962445;28;20051;-85
2023/08/03 10:48:01;;;;;;;0.52;0.20;;;22.20;54.20;;;;;;4963189;28;20058;-86
2023/08/03 10:50:59;;;;;;;0.70;0.10;;;22.30;54.10;;;;;;4963422;28;20061;-85
2023/08/03 10:53:26;;;;;;;1.05;0.20;;;22.20;53.90;;;;;;4964240;28;20050;-85
2023/08/03 10:56:05;;;;;;;0.55;0.40;;;22.20;54.00;;;;;;4964816;28;20473;-85
2023/08/03 10:58:41;;;;;;;1.20;0.20;;;22.20;54.00;;;;;;4963613;28;20478;-86
2023/08/03 11:01:14;;;;;;;0.32;0.10;;;22.20;54.20;;;;;;4963320;28;20458;-86
2023/08/03 11:03:41;;;;;;;1.48;0.30;;;22.10;54.40;;;;;;4963611;28;20063;-85
2023/08/03 11:06:09;;;;;;;2.20;0.20;;;22.10;54.60;;;;;;4963065;28;20054;-85
2023/08/03 11:08:37;;;;;;;1.08;0.30;;;22.10;54.70;;;;;;4963220;28;20062;-86
2023/08/03 11:11:04;;;;;;;2.70;0.65;;;22.10;54.80;;;;;;4961285;28;20284;-86
2023/08/03 11:13:31;;;;;;;0.60;0.20;;;22.10;54.90;;;;;;4961704;28;20074;-85
2023/08/03 11:15:59;;;;;;;0.32;0.10;;;22.10;55.00;;;;;;4962651;28;20415;-86
2023/08/03 11:18:27;;;;;;;1.58;0.30;;;22.10;55.20;;;;;;4962680;28;20510;-86
2023/08/03 11:20:55;;;;;;;0.30;0.20;;;22.10;55.40;;;;;;4962135;28;20062;-86
2023/08/03 11:23:22;;;;;;;0.77;0.20;;;22.10;55.60;;;;;;4963664;28;20062;-86
2023/08/03 11:25:49;;;;;;;0.75;0.25;;;22.10;55.70;;;;;;4963072;28;20066;-86
2023/08/03 11:28:18;;;;;;;0.70;0.20;;;22.10;55.60;;;;;;4961553;28;20069;-86
2023/08/03 11:30:45;;;;;;;0.88;0.30;;;22.20;55.70;;;;;;4962495;28;20055;-86
2023/08/03 11:33:14;;;;;;;0.50;0.30;;;22.20;55.60;;;;;;4962326;28;20050;-86
2023/08/03 11:35:43;;;;;;;2.13;0.40;;;22.20;55.60;;;;;;4962066;28;20872;-87
2023/08/03 11:38:11;;;;;;;0.25;0.13;;;22.20;55.50;;;;;;4962655;28;20055;-88
2023/08/03 11:40:39;;;;;;;0.75;0.10;;;22.20;55.40;;;;;;4961940;28;20058;-86
2023/08/03 11:43:06;;;;;;;0.08;0.08;;;22.20;55.30;;;;;;4961264;28;20506;-85
2023/08/03 11:45:36;;;;;;;0.10;0.10;;;22.20;55.20;;;;;;4962633;28;20070;-86
2023/08/03 11:48:06;;;;;;;0.28;0.17;;;22.30;55.20;;;;;;4961245;28;20055;-87
2023/08/03 11:50:33;;;;;;;0.90;0.10;;;22.20;55.30;;;;;;4962041;28;20050;-87
2023/08/03 11:53:02;;;;;;;0.30;0.10;;;22.30;55.20;;;;;;4961790;28;20157;-86
2023/08/03 11:55:30;;;;;;;0.65;0.20;;;22.30;55.00;;;;;;4962832;28;21113;-83
2023/08/03 11:58:10;;;;;;;0.13;0.10;;;22.30;54.80;;;;;;4960899;28;20050;-87
2023/08/03 12:00:38;;;;;;;0.10;0.10;;;22.30;54.80;;;;;;4962345;28;20042;-86
2023/08/03 12:03:05;;;;;;;0.35;0.10;;;22.30;54.80;;;;;;4963454;28;20479;-84
2023/08/03 12:05:48;;;;;;;0.03;0.03;;;22.30;54.90;;;;;;4963064;28;20062;-85
2023/08/03 12:08:19;;;;;;;0.00;0.00;;;22.30;55.00;;;;;;4958206;28;20065;-84
2023/08/03 12:11:01;;;;;;;0.70;0.08;;;22.30;55.10;;;;;;4962342;28;20070;-85
2023/08/03 12:13:28;;;;;;;0.30;0.08;;;22.30;55.10;;;;;;4961647;28;20058;-84
2023/08/03 12:15:56;;;;;;;0.43;0.20;;;22.30;55.20;;;;;;4963220;28;20498;-84
2023/08/03 12:18:23;;;;;;;0.03;0.03;;;22.30;55.50;;;;;;4962239;28;20422;-84
2023/08/03 12:20:51;;;;;;;0.50;0.10;;;22.30;55.40;;;;;;4963194;28;20067;-83
2023/08/03 12:23:22;;;;;;;0.17;0.10;;;22.30;55.50;;;;;;4964214;28;20440;-84
2023/08/03 12:25:49;;;;;;;0.60;0.40;;;22.30;55.80;;;;;;4965251;28;20063;-83
2023/08/03 12:28:16;;;;;;;0.20;0.20;;;22.30;55.90;;;;;;4964432;28;20054;-83
2023/08/03 12:30:44;;;;;;;0.85;0.13;;;22.40;55.80;;;;;;4966032;28;20419;-84
2023/08/03 12:33:11;;;;;;;2.17;0.38;;;22.50;55.80;;;;;;4964856;28;20059;-83
2023/08/03 12:35:39;;;;;;;0.50;0.15;;;22.50;55.90;;;;;;4966574;28;20059;-84
2023/08/03 12:38:07;;;;;;;0.52;0.20;;;22.50;55.80;;;;;;4966050;28;20058;-84
2023/08/03 12:40:35;;;;;;;0.80;0.25;;;22.60;55.80;;;;;;4964032;28;20059;-85
2023/08/03 12:43:03;;;;;;;3.40;0.50;;;22.70;55.70;;;;;;4964081;28;20062;-83
2023/08/03 12:45:30;;;;;;;1.60;0.30;;;22.80;55.80;;;;;;4965177;28;20515;-84
2023/08/03 12:48:01;;;;;;;0.40;0.40;;;22.90;55.50;;;;;;4964804;28;20050;-83
2023/08/03 12:50:29;;;;;;;0.20;0.15;;;23.00;55.50;;;;;;4965618;28;20058;-85
2023/08/03 12:52:56;;;;;;;0.63;0.30;;;23.00;55.40;;;;;;4964950;28;20054;-85
2023/08/03 12:55:23;;;;;;;1.10;0.20;;;23.10;55.30;;;;;;4966097;28;20065;-84
2023/08/03 12:57:52;;;;;;;1.33;0.30;;;23.20;54.90;;;;;;4964281;28;20054;-83
2023/08/03 13:00:22;;;;;;;1.15;0.30;;;23.20;54.30;;;;;;4965952;28;20467;-84
2023/08/03 13:02:50;;;;;;;0.77;0.43;;;23.30;53.70;;;;;;4963939;28;20051;-85
2023/08/03 13:05:17;;;;;;;9.50;0.50;;;23.30;53.30;;;;;;4971583;28;20050;-85
2023/08/03 13:07:45;;;;;;;0.45;0.30;;;23.40;52.80;;;;;;4963296;28;20051;-86
2023/08/03 13:10:14;;;;;;;1.33;0.40;;;23.40;52.60;;;;;;4965263;28;20062;-84
2023/08/03 13:12:41;;;;;;;2.08;0.70;;;23.40;52.20;;;;;;4963730;28;20054;-84
2023/08/03 13:15:10;;;;;;;1.27;0.60;;;23.40;51.60;;;;;;4964977;28;20077;-85